イエローナイフ の空港の天気 - METARとTAF

イエローナイフ空港 ( CYZF / YZF ) - カナダ ノースウエスト準州イエローナイフ
飛行場実況気象(Metar)
観測時間01/19 19:21 MST (01/20 02:21 UTC)
風向・風速東南東 6m/s
視程10km以上
天気現象弱い雪 低い地吹雪
全天の8割程度の雲 雲底高度 1220m
全天を覆う雲 雲底高度 2440m
気温-21℃
湿度64%
気圧1019.1hPa
METARCYZF 200221Z 12011KT 15SM -SN DRSN BKN040 OVC080 M21/M26 A3000 RMK SC5AC3 SLP191
過去の天気等 Google飛行場航空写真 Wunderground天気予報

過去48時間のMETAR

飛行場予報(TAF)
発表時間: 1/19 16:40 MST (1/19 23:40 UTC)
予報対象時間: 19日17時 MST ~ 20日17時 MST
風向・風速東 5m/s
視程10km以上
少しの雲 雲底高度 1220m
全天の8割程度の雲 雲底高度 3050m
19日20時 MST から
風向・風速東南東 6m/s 瞬間風速 11m/s
視程10km以上
全天の8割程度の雲 雲底高度 1220m
全天を覆う雲 雲底高度 3050m
19日20時 MST ~ 19日24時 MST に一時的に
視程8050m
天気現象弱い雪
20日0時 MST から
風向・風速東南東 4m/s
視程10km以上
天気現象弱い雪
全天の4割程度の雲 雲底高度 460m
全天を覆う雲 雲底高度 1220m
20日0時 MST ~ 20日13時 MST に一時的に
視程3220m
天気現象弱い雪
全天を覆う雲 雲底高度 460m
20日13時 MST から
風向・風速北 4m/s
視程10km以上
全天の4割程度の雲 雲底高度 610m
全天の8割程度の雲 雲底高度 1520m
TAF CYZF 192340Z 2000/2024 10010KT P6SM FEW040 BKN100
FM200300 12012G22KT P6SM BKN040 OVC100
TEMPO 2003/2007 5SM -SN
FM200700 12008KT 6SM -SN SCT015 OVC040
TEMPO 2007/2020 2SM -SN OVC015
FM202000 35007KT P6SM SCT020 BKN050 RMK NXT FCST BY 200600Z